sensor_id;sensor_type;location;lat;lon;timestamp;temperature;humidity
13699;DHT22;6921;53.642;9.956;2022-07-22T00:01:02;19.40;99.90
13699;DHT22;6921;53.642;9.956;2022-07-22T00:03:05;19.30;99.90
13699;DHT22;6921;53.642;9.956;2022-07-22T00:05:09;19.30;99.90
13699;DHT22;6921;53.642;9.956;2022-07-22T00:07:12;19.30;99.90
13699;DHT22;6921;53.642;9.956;2022-07-22T00:09:17;19.10;99.90
13699;DHT22;6921;53.642;9.956;2022-07-22T00:11:20;19.30;99.90
13699;DHT22;6921;53.642;9.956;2022-07-22T00:13:23;18.70;99.90
13699;DHT22;6921;53.642;9.956;2022-07-22T00:15:26;19.00;99.90
13699;DHT22;6921;53.642;9.956;2022-07-22T00:17:29;18.70;99.90
13699;DHT22;6921;53.642;9.956;2022-07-22T00:19:32;18.80;99.90
13699;DHT22;6921;53.642;9.956;2022-07-22T00:21:36;18.70;99.90
13699;DHT22;6921;53.642;9.956;2022-07-22T00:23:39;18.80;99.90
13699;DHT22;6921;53.642;9.956;2022-07-22T00:25:43;18.60;99.90
13699;DHT22;6921;53.642;9.956;2022-07-22T00:27:46;18.60;99.90
13699;DHT22;6921;53.642;9.956;2022-07-22T00:29:49;18.40;99.90
13699;DHT22;6921;53.642;9.956;2022-07-22T00:31:53;18.40;99.90
13699;DHT22;6921;53.642;9.956;2022-07-22T00:33:56;18.50;99.90
13699;DHT22;6921;53.642;9.956;2022-07-22T00:35:59;18.30;99.90
13699;DHT22;6921;53.642;9.956;2022-07-22T00:38:02;18.20;99.90
13699;DHT22;6921;53.642;9.956;2022-07-22T00:40:06;18.20;99.90
13699;DHT22;6921;53.642;9.956;2022-07-22T00:42:10;18.10;99.90
13699;DHT22;6921;53.642;9.956;2022-07-22T00:44:13;18.00;99.90
13699;DHT22;6921;53.642;9.956;2022-07-22T00:46:17;18.00;99.90
13699;DHT22;6921;53.642;9.956;2022-07-22T00:48:20;18.00;99.90
13699;DHT22;6921;53.642;9.956;2022-07-22T00:50:23;17.90;99.90
13699;DHT22;6921;53.642;9.956;2022-07-22T00:52:27;17.90;99.90
13699;DHT22;6921;53.642;9.956;2022-07-22T00:54:30;18.40;99.90
13699;DHT22;6921;53.642;9.956;2022-07-22T00:56:33;17.20;99.90
13699;DHT22;6921;53.642;9.956;2022-07-22T00:58:39;17.90;99.90
13699;DHT22;6921;53.642;9.956;2022-07-22T01:00:42;17.70;99.90
13699;DHT22;6921;53.642;9.956;2022-07-22T01:02:46;17.80;99.90
13699;DHT22;6921;53.642;9.956;2022-07-22T01:04:49;17.60;99.90
13699;DHT22;6921;53.642;9.956;2022-07-22T01:06:53;17.40;99.90
13699;DHT22;6921;53.642;9.956;2022-07-22T01:09:02;17.50;99.90
13699;DHT22;6921;53.642;9.956;2022-07-22T01:11:06;17.70;99.90
13699;DHT22;6921;53.642;9.956;2022-07-22T01:13:10;17.00;99.90
13699;DHT22;6921;53.642;9.956;2022-07-22T01:15:14;16.90;99.90
13699;DHT22;6921;53.642;9.956;2022-07-22T01:17:17;16.90;99.90
13699;DHT22;6921;53.642;9.956;2022-07-22T01:19:20;16.90;99.90
13699;DHT22;6921;53.642;9.956;2022-07-22T01:21:25;17.60;99.90
13699;DHT22;6921;53.642;9.956;2022-07-22T01:23:28;16.80;99.90
13699;DHT22;6921;53.642;9.956;2022-07-22T01:27:34;16.70;99.90
13699;DHT22;6921;53.642;9.956;2022-07-22T01:29:38;17.30;99.90
13699;DHT22;6921;53.642;9.956;2022-07-22T01:31:41;16.90;99.90
13699;DHT22;6921;53.642;9.956;2022-07-22T01:33:44;16.80;99.90
13699;DHT22;6921;53.642;9.956;2022-07-22T01:37:54;16.70;99.90
13699;DHT22;6921;53.642;9.956;2022-07-22T01:39:57;16.60;99.90
13699;DHT22;6921;53.642;9.956;2022-07-22T01:42:00;16.60;99.90
13699;DHT22;6921;53.642;9.956;2022-07-22T01:44:03;16.50;99.90
13699;DHT22;6921;53.642;9.956;2022-07-22T01:46:06;16.80;99.90
13699;DHT22;6921;53.642;9.956;2022-07-22T01:48:10;16.50;99.90
13699;DHT22;6921;53.642;9.956;2022-07-22T01:50:13;16.70;99.90
13699;DHT22;6921;53.642;9.956;2022-07-22T01:52:16;16.50;99.90
13699;DHT22;6921;53.642;9.956;2022-07-22T01:54:20;16.50;99.90
13699;DHT22;6921;53.642;9.956;2022-07-22T01:56:23;16.50;99.90
13699;DHT22;6921;53.642;9.956;2022-07-22T01:58:26;17.00;99.90
13699;DHT22;6921;53.642;9.956;2022-07-22T02:00:29;16.60;99.90
13699;DHT22;6921;53.642;9.956;2022-07-22T02:02:32;16.50;99.90
13699;DHT22;6921;53.642;9.956;2022-07-22T02:04:35;16.50;99.90
13699;DHT22;6921;53.642;9.956;2022-07-22T02:06:38;17.00;99.90
13699;DHT22;6921;53.642;9.956;2022-07-22T02:08:41;16.40;99.90
13699;DHT22;6921;53.642;9.956;2022-07-22T02:10:46;16.50;99.90
13699;DHT22;6921;53.642;9.956;2022-07-22T02:12:48;16.80;99.90
13699;DHT22;6921;53.642;9.956;2022-07-22T02:14:51;16.40;99.90
13699;DHT22;6921;53.642;9.956;2022-07-22T02:16:54;16.40;99.90
13699;DHT22;6921;53.642;9.956;2022-07-22T02:18:57;16.30;99.90
13699;DHT22;6921;53.642;9.956;2022-07-22T02:21:01;16.30;99.90
13699;DHT22;6921;53.642;9.956;2022-07-22T02:23:04;16.40;99.90
13699;DHT22;6921;53.642;9.956;2022-07-22T02:25:07;16.60;99.90
13699;DHT22;6921;53.642;9.956;2022-07-22T02:27:12;16.40;99.90
13699;DHT22;6921;53.642;9.956;2022-07-22T02:29:15;16.60;99.90
13699;DHT22;6921;53.642;9.956;2022-07-22T02:31:18;16.20;99.90
13699;DHT22;6921;53.642;9.956;2022-07-22T02:33:22;16.20;99.90
13699;DHT22;6921;53.642;9.956;2022-07-22T02:35:25;16.20;99.90
13699;DHT22;6921;53.642;9.956;2022-07-22T02:37:28;16.10;99.90
13699;DHT22;6921;53.642;9.956;2022-07-22T02:39:31;16.10;99.90
13699;DHT22;6921;53.642;9.956;2022-07-22T02:41:36;16.20;99.90
13699;DHT22;6921;53.642;9.956;2022-07-22T02:43:40;16.20;99.90
13699;DHT22;6921;53.642;9.956;2022-07-22T02:45:44;16.10;99.90
13699;DHT22;6921;53.642;9.956;2022-07-22T02:47:48;16.20;99.90
13699;DHT22;6921;53.642;9.956;2022-07-22T02:49:51;16.30;99.90
13699;DHT22;6921;53.642;9.956;2022-07-22T02:51:55;16.20;99.90
13699;DHT22;6921;53.642;9.956;2022-07-22T02:53:58;16.10;99.90
13699;DHT22;6921;53.642;9.956;2022-07-22T02:56:01;16.20;99.90
13699;DHT22;6921;53.642;9.956;2022-07-22T02:58:05;16.20;99.90
13699;DHT22;6921;53.642;9.956;2022-07-22T03:00:10;16.60;99.90
13699;DHT22;6921;53.642;9.956;2022-07-22T03:02:14;16.30;99.90
13699;DHT22;6921;53.642;9.956;2022-07-22T03:04:17;16.10;99.90
13699;DHT22;6921;53.642;9.956;2022-07-22T03:06:20;16.20;99.90
13699;DHT22;6921;53.642;9.956;2022-07-22T03:08:23;16.50;99.90
13699;DHT22;6921;53.642;9.956;2022-07-22T03:10:27;16.40;99.90
13699;DHT22;6921;53.642;9.956;2022-07-22T03:12:30;16.20;99.90
13699;DHT22;6921;53.642;9.956;2022-07-22T03:14:33;16.10;99.90
13699;DHT22;6921;53.642;9.956;2022-07-22T03:16:37;16.70;99.90
13699;DHT22;6921;53.642;9.956;2022-07-22T03:20:43;16.20;99.90
13699;DHT22;6921;53.642;9.956;2022-07-22T03:22:46;16.20;99.90
13699;DHT22;6921;53.642;9.956;2022-07-22T03:24:49;16.20;99.90
13699;DHT22;6921;53.642;9.956;2022-07-22T03:26:52;16.70;99.90
13699;DHT22;6921;53.642;9.956;2022-07-22T03:28:55;16.30;99.90
13699;DHT22;6921;53.642;9.956;2022-07-22T03:30:59;16.20;99.90
13699;DHT22;6921;53.642;9.956;2022-07-22T03:33:07;16.20;99.90
13699;DHT22;6921;53.642;9.956;2022-07-22T03:35:10;16.20;99.90
13699;DHT22;6921;53.642;9.956;2022-07-22T03:37:13;16.30;99.90
13699;DHT22;6921;53.642;9.956;2022-07-22T03:39:16;16.30;99.90
13699;DHT22;6921;53.642;9.956;2022-07-22T03:41:19;16.30;99.90
13699;DHT22;6921;53.642;9.956;2022-07-22T03:43:22;16.20;99.90
13699;DHT22;6921;53.642;9.956;2022-07-22T03:45:25;16.00;99.90
13699;DHT22;6921;53.642;9.956;2022-07-22T03:47:28;16.10;99.90
13699;DHT22;6921;53.642;9.956;2022-07-22T03:49:33;16.10;99.90
13699;DHT22;6921;53.642;9.956;2022-07-22T03:51:36;16.20;99.90
13699;DHT22;6921;53.642;9.956;2022-07-22T03:53:39;16.10;99.90
13699;DHT22;6921;53.642;9.956;2022-07-22T03:55:42;16.00;99.90
13699;DHT22;6921;53.642;9.956;2022-07-22T03:57:45;16.00;99.90
13699;DHT22;6921;53.642;9.956;2022-07-22T03:59:48;16.10;99.90
13699;DHT22;6921;53.642;9.956;2022-07-22T04:01:51;16.10;99.90
13699;DHT22;6921;53.642;9.956;2022-07-22T04:03:54;16.70;99.90
13699;DHT22;6921;53.642;9.956;2022-07-22T04:06:06;16.20;99.90
13699;DHT22;6921;53.642;9.956;2022-07-22T04:08:09;16.30;99.90
13699;DHT22;6921;53.642;9.956;2022-07-22T04:10:12;16.60;99.90
13699;DHT22;6921;53.642;9.956;2022-07-22T04:12:15;16.20;99.90
13699;DHT22;6921;53.642;9.956;2022-07-22T04:14:18;16.20;99.90
13699;DHT22;6921;53.642;9.956;2022-07-22T04:16:21;16.10;99.90
13699;DHT22;6921;53.642;9.956;2022-07-22T04:18:24;16.60;99.90
13699;DHT22;6921;53.642;9.956;2022-07-22T04:20:27;16.10;99.90
13699;DHT22;6921;53.642;9.956;2022-07-22T04:22:32;16.40;99.90
13699;DHT22;6921;53.642;9.956;2022-07-22T04:24:35;16.20;99.90
13699;DHT22;6921;53.642;9.956;2022-07-22T04:26:38;16.60;99.90
13699;DHT22;6921;53.642;9.956;2022-07-22T04:28:41;16.40;99.90
13699;DHT22;6921;53.642;9.956;2022-07-22T04:32:47;16.20;99.90
13699;DHT22;6921;53.642;9.956;2022-07-22T04:34:50;16.20;99.90
13699;DHT22;6921;53.642;9.956;2022-07-22T04:36:53;16.30;99.90
13699;DHT22;6921;53.642;9.956;2022-07-22T04:38:57;16.30;99.90
13699;DHT22;6921;53.642;9.956;2022-07-22T04:41:01;16.30;99.90
13699;DHT22;6921;53.642;9.956;2022-07-22T04:43:08;16.20;99.90
13699;DHT22;6921;53.642;9.956;2022-07-22T04:45:11;16.70;99.90
13699;DHT22;6921;53.642;9.956;2022-07-22T04:47:14;16.50;99.90
13699;DHT22;6921;53.642;9.956;2022-07-22T04:49:17;16.10;99.90
13699;DHT22;6921;53.642;9.956;2022-07-22T04:51:20;16.30;99.90
13699;DHT22;6921;53.642;9.956;2022-07-22T04:53:23;16.70;99.90
13699;DHT22;6921;53.642;9.956;2022-07-22T04:55:47;16.40;99.90
13699;DHT22;6921;53.642;9.956;2022-07-22T04:57:50;16.80;99.90
13699;DHT22;6921;53.642;9.956;2022-07-22T04:59:53;16.40;99.90
13699;DHT22;6921;53.642;9.956;2022-07-22T05:01:56;16.20;99.90
13699;DHT22;6921;53.642;9.956;2022-07-22T05:03:59;16.40;99.90
13699;DHT22;6921;53.642;9.956;2022-07-22T05:06:02;16.30;99.90
13699;DHT22;6921;53.642;9.956;2022-07-22T05:08:05;16.40;99.90
13699;DHT22;6921;53.642;9.956;2022-07-22T05:10:09;16.40;99.90
13699;DHT22;6921;53.642;9.956;2022-07-22T05:12:14;16.90;99.90
13699;DHT22;6921;53.642;9.956;2022-07-22T05:14:17;16.80;99.90
13699;DHT22;6921;53.642;9.956;2022-07-22T05:16:21;16.00;99.90
13699;DHT22;6921;53.642;9.956;2022-07-22T05:18:24;16.20;99.90
13699;DHT22;6921;53.642;9.956;2022-07-22T05:20:27;15.90;99.90
13699;DHT22;6921;53.642;9.956;2022-07-22T05:22:31;15.90;99.90
13699;DHT22;6921;53.642;9.956;2022-07-22T05:24:38;16.10;99.90
13699;DHT22;6921;53.642;9.956;2022-07-22T05:26:41;16.50;99.90
13699;DHT22;6921;53.642;9.956;2022-07-22T05:28:46;15.90;99.90
13699;DHT22;6921;53.642;9.956;2022-07-22T05:30:49;16.30;99.90
13699;DHT22;6921;53.642;9.956;2022-07-22T05:32:52;15.90;99.90
13699;DHT22;6921;53.642;9.956;2022-07-22T05:34:56;16.20;99.90
13699;DHT22;6921;53.642;9.956;2022-07-22T05:36:59;16.20;99.90
13699;DHT22;6921;53.642;9.956;2022-07-22T05:39:02;16.20;99.90
13699;DHT22;6921;53.642;9.956;2022-07-22T05:41:05;16.20;99.90
13699;DHT22;6921;53.642;9.956;2022-07-22T05:43:08;16.40;99.90
13699;DHT22;6921;53.642;9.956;2022-07-22T05:45:13;16.80;99.90
13699;DHT22;6921;53.642;9.956;2022-07-22T05:47:16;16.80;99.90
13699;DHT22;6921;53.642;9.956;2022-07-22T05:49:19;16.30;99.90
13699;DHT22;6921;53.642;9.956;2022-07-22T05:51:23;16.30;99.90
13699;DHT22;6921;53.642;9.956;2022-07-22T05:53:26;16.40;99.90
13699;DHT22;6921;53.642;9.956;2022-07-22T05:55:29;16.30;99.90
13699;DHT22;6921;53.642;9.956;2022-07-22T05:57:33;16.20;99.90
13699;DHT22;6921;53.642;9.956;2022-07-22T05:59:36;16.10;99.90
13699;DHT22;6921;53.642;9.956;2022-07-22T06:01:41;16.30;99.90
13699;DHT22;6921;53.642;9.956;2022-07-22T06:03:44;16.30;99.90
13699;DHT22;6921;53.642;9.956;2022-07-22T06:05:47;16.30;99.90
13699;DHT22;6921;53.642;9.956;2022-07-22T06:07:50;16.30;99.90
13699;DHT22;6921;53.642;9.956;2022-07-22T06:09:53;16.40;99.90
13699;DHT22;6921;53.642;9.956;2022-07-22T06:11:56;16.50;99.90
13699;DHT22;6921;53.642;9.956;2022-07-22T06:13:59;17.10;99.90
13699;DHT22;6921;53.642;9.956;2022-07-22T06:16:02;16.60;99.90
13699;DHT22;6921;53.642;9.956;2022-07-22T06:18:06;16.60;99.90
13699;DHT22;6921;53.642;9.956;2022-07-22T06:20:10;16.50;99.90
13699;DHT22;6921;53.642;9.956;2022-07-22T06:22:13;16.50;99.90
13699;DHT22;6921;53.642;9.956;2022-07-22T06:24:19;16.50;99.90
13699;DHT22;6921;53.642;9.956;2022-07-22T06:26:22;16.50;99.90
13699;DHT22;6921;53.642;9.956;2022-07-22T06:28:25;16.60;99.90
13699;DHT22;6921;53.642;9.956;2022-07-22T06:30:28;16.50;99.90
13699;DHT22;6921;53.642;9.956;2022-07-22T06:32:31;16.50;99.90
13699;DHT22;6921;53.642;9.956;2022-07-22T06:34:36;16.70;99.90
13699;DHT22;6921;53.642;9.956;2022-07-22T06:36:39;16.60;99.90
13699;DHT22;6921;53.642;9.956;2022-07-22T06:38:42;16.60;99.90
13699;DHT22;6921;53.642;9.956;2022-07-22T06:40:45;17.00;99.90
13699;DHT22;6921;53.642;9.956;2022-07-22T06:42:48;17.00;99.90
13699;DHT22;6921;53.642;9.956;2022-07-22T06:44:51;17.10;99.90
13699;DHT22;6921;53.642;9.956;2022-07-22T06:46:54;17.30;99.90
13699;DHT22;6921;53.642;9.956;2022-07-22T06:48:57;17.20;99.90
13699;DHT22;6921;53.642;9.956;2022-07-22T06:51:02;17.80;99.90
13699;DHT22;6921;53.642;9.956;2022-07-22T06:53:06;17.10;99.90
13699;DHT22;6921;53.642;9.956;2022-07-22T06:55:09;17.20;99.90
13699;DHT22;6921;53.642;9.956;2022-07-22T06:57:12;17.30;99.90
13699;DHT22;6921;53.642;9.956;2022-07-22T06:59:15;17.20;99.90
13699;DHT22;6921;53.642;9.956;2022-07-22T07:01:18;17.20;99.90
13699;DHT22;6921;53.642;9.956;2022-07-22T07:03:21;17.30;99.90
13699;DHT22;6921;53.642;9.956;2022-07-22T07:05:36;17.10;99.90
13699;DHT22;6921;53.642;9.956;2022-07-22T07:07:40;17.10;99.90
13699;DHT22;6921;53.642;9.956;2022-07-22T07:09:43;17.10;99.90
13699;DHT22;6921;53.642;9.956;2022-07-22T07:13:50;16.70;99.90
13699;DHT22;6921;53.642;9.956;2022-07-22T07:15:53;17.20;99.90
13699;DHT22;6921;53.642;9.956;2022-07-22T07:17:56;17.10;99.90
13699;DHT22;6921;53.642;9.956;2022-07-22T07:19:59;17.30;99.90
13699;DHT22;6921;53.642;9.956;2022-07-22T07:22:02;17.30;99.90
13699;DHT22;6921;53.642;9.956;2022-07-22T07:24:07;17.40;99.90
13699;DHT22;6921;53.642;9.956;2022-07-22T07:26:10;17.60;99.90
13699;DHT22;6921;53.642;9.956;2022-07-22T07:28:13;17.60;99.90
13699;DHT22;6921;53.642;9.956;2022-07-22T07:30:16;17.30;99.90
13699;DHT22;6921;53.642;9.956;2022-07-22T07:32:19;17.20;99.90
13699;DHT22;6921;53.642;9.956;2022-07-22T07:34:22;16.80;99.90
13699;DHT22;6921;53.642;9.956;2022-07-22T07:36:25;17.60;99.90
13699;DHT22;6921;53.642;9.956;2022-07-22T07:38:31;17.20;99.90
13699;DHT22;6921;53.642;9.956;2022-07-22T07:40:37;17.30;99.90
13699;DHT22;6921;53.642;9.956;2022-07-22T07:42:40;17.90;99.90
13699;DHT22;6921;53.642;9.956;2022-07-22T07:44:48;17.90;99.90
13699;DHT22;6921;53.642;9.956;2022-07-22T07:46:51;17.40;99.90
13699;DHT22;6921;53.642;9.956;2022-07-22T07:48:54;17.40;99.90
13699;DHT22;6921;53.642;9.956;2022-07-22T07:50:57;17.40;99.90
13699;DHT22;6921;53.642;9.956;2022-07-22T07:53:00;17.30;99.90
13699;DHT22;6921;53.642;9.956;2022-07-22T07:55:04;17.30;99.90
13699;DHT22;6921;53.642;9.956;2022-07-22T07:57:13;17.40;99.90
13699;DHT22;6921;53.642;9.956;2022-07-22T07:59:16;17.40;99.90
13699;DHT22;6921;53.642;9.956;2022-07-22T08:01:29;17.50;99.90
13699;DHT22;6921;53.642;9.956;2022-07-22T08:03:52;17.30;99.90
13699;DHT22;6921;53.642;9.956;2022-07-22T08:06:15;17.40;99.90
13699;DHT22;6921;53.642;9.956;2022-07-22T08:08:18;17.30;99.90
13699;DHT22;6921;53.642;9.956;2022-07-22T08:10:21;17.40;99.90
13699;DHT22;6921;53.642;9.956;2022-07-22T08:12:46;17.90;99.90
13699;DHT22;6921;53.642;9.956;2022-07-22T08:14:50;17.50;99.90
13699;DHT22;6921;53.642;9.956;2022-07-22T08:16:53;17.70;99.90
13699;DHT22;6921;53.642;9.956;2022-07-22T08:18:56;18.00;99.90
13699;DHT22;6921;53.642;9.956;2022-07-22T08:20:59;18.00;99.90
13699;DHT22;6921;53.642;9.956;2022-07-22T08:23:03;18.20;99.90
13699;DHT22;6921;53.642;9.956;2022-07-22T08:25:06;18.20;99.90
13699;DHT22;6921;53.642;9.956;2022-07-22T08:27:12;18.20;99.90
13699;DHT22;6921;53.642;9.956;2022-07-22T08:29:16;18.20;99.90
13699;DHT22;6921;53.642;9.956;2022-07-22T08:31:19;18.30;99.90
13699;DHT22;6921;53.642;9.956;2022-07-22T08:33:22;18.00;99.90
13699;DHT22;6921;53.642;9.956;2022-07-22T08:35:25;18.00;99.90
13699;DHT22;6921;53.642;9.956;2022-07-22T08:37:29;18.30;99.90
13699;DHT22;6921;53.642;9.956;2022-07-22T08:39:31;18.20;99.90
13699;DHT22;6921;53.642;9.956;2022-07-22T08:41:37;18.30;99.90
13699;DHT22;6921;53.642;9.956;2022-07-22T08:43:41;18.00;99.90
13699;DHT22;6921;53.642;9.956;2022-07-22T08:45:47;18.10;99.90
13699;DHT22;6921;53.642;9.956;2022-07-22T08:47:53;18.20;99.90
13699;DHT22;6921;53.642;9.956;2022-07-22T08:49:56;18.00;99.90
13699;DHT22;6921;53.642;9.956;2022-07-22T08:52:02;17.80;99.90
13699;DHT22;6921;53.642;9.956;2022-07-22T08:54:05;17.80;99.90
13699;DHT22;6921;53.642;9.956;2022-07-22T08:56:12;17.80;99.90
13699;DHT22;6921;53.642;9.956;2022-07-22T08:58:15;18.60;99.90
13699;DHT22;6921;53.642;9.956;2022-07-22T09:00:21;18.30;99.90
13699;DHT22;6921;53.642;9.956;2022-07-22T09:02:27;18.20;99.90
13699;DHT22;6921;53.642;9.956;2022-07-22T09:04:30;18.40;99.90
13699;DHT22;6921;53.642;9.956;2022-07-22T09:06:33;18.30;99.90
13699;DHT22;6921;53.642;9.956;2022-07-22T09:08:50;18.40;99.90
13699;DHT22;6921;53.642;9.956;2022-07-22T09:10:53;18.70;99.90
13699;DHT22;6921;53.642;9.956;2022-07-22T09:12:58;18.30;99.90
13699;DHT22;6921;53.642;9.956;2022-07-22T09:15:03;17.30;99.90
13699;DHT22;6921;53.642;9.956;2022-07-22T09:17:06;18.80;99.90
13699;DHT22;6921;53.642;9.956;2022-07-22T09:19:13;18.80;99.90
13699;DHT22;6921;53.642;9.956;2022-07-22T09:21:16;19.40;99.90
13699;DHT22;6921;53.642;9.956;2022-07-22T09:23:20;18.80;99.90
13699;DHT22;6921;53.642;9.956;2022-07-22T09:25:31;18.50;99.90
13699;DHT22;6921;53.642;9.956;2022-07-22T09:27:34;18.40;99.90
13699;DHT22;6921;53.642;9.956;2022-07-22T09:29:37;19.20;99.90
13699;DHT22;6921;53.642;9.956;2022-07-22T09:31:41;18.40;99.90
13699;DHT22;6921;53.642;9.956;2022-07-22T09:33:44;18.90;99.90
13699;DHT22;6921;53.642;9.956;2022-07-22T09:35:52;17.80;99.90
13699;DHT22;6921;53.642;9.956;2022-07-22T09:37:57;18.60;99.90
13699;DHT22;6921;53.642;9.956;2022-07-22T09:40:12;19.30;99.90
13699;DHT22;6921;53.642;9.956;2022-07-22T09:42:15;18.50;99.90
13699;DHT22;6921;53.642;9.956;2022-07-22T09:44:22;18.60;99.90
13699;DHT22;6921;53.642;9.956;2022-07-22T09:46:35;18.80;99.90
13699;DHT22;6921;53.642;9.956;2022-07-22T09:48:40;18.90;99.90
13699;DHT22;6921;53.642;9.956;2022-07-22T09:50:45;18.80;99.90
13699;DHT22;6921;53.642;9.956;2022-07-22T09:52:52;18.90;99.90
13699;DHT22;6921;53.642;9.956;2022-07-22T09:55:00;18.80;99.90
13699;DHT22;6921;53.642;9.956;2022-07-22T09:57:03;19.30;99.90
13699;DHT22;6921;53.642;9.956;2022-07-22T09:59:07;18.70;99.90
13699;DHT22;6921;53.642;9.956;2022-07-22T10:01:12;18.80;99.90
13699;DHT22;6921;53.642;9.956;2022-07-22T10:03:18;18.90;99.90
13699;DHT22;6921;53.642;9.956;2022-07-22T10:05:24;18.70;99.90
13699;DHT22;6921;53.642;9.956;2022-07-22T10:07:27;18.70;99.90
13699;DHT22;6921;53.642;9.956;2022-07-22T10:09:32;18.40;99.90
13699;DHT22;6921;53.642;9.956;2022-07-22T10:11:37;18.30;99.90
13699;DHT22;6921;53.642;9.956;2022-07-22T10:13:46;18.30;99.90
13699;DHT22;6921;53.642;9.956;2022-07-22T10:15:49;18.30;99.90
13699;DHT22;6921;53.642;9.956;2022-07-22T10:17:55;18.70;99.90
13699;DHT22;6921;53.642;9.956;2022-07-22T10:19:58;18.30;99.90
13699;DHT22;6921;53.642;9.956;2022-07-22T10:22:01;18.80;99.90
13699;DHT22;6921;53.642;9.956;2022-07-22T10:24:12;18.40;99.90
13699;DHT22;6921;53.642;9.956;2022-07-22T10:26:17;18.50;99.90
13699;DHT22;6921;53.642;9.956;2022-07-22T10:28:24;18.70;99.90
13699;DHT22;6921;53.642;9.956;2022-07-22T10:30:29;18.90;99.90
13699;DHT22;6921;53.642;9.956;2022-07-22T10:32:32;19.10;99.90
13699;DHT22;6921;53.642;9.956;2022-07-22T10:34:35;19.10;99.90
13699;DHT22;6921;53.642;9.956;2022-07-22T10:36:39;19.00;99.90
13699;DHT22;6921;53.642;9.956;2022-07-22T10:39:03;18.90;99.90
13699;DHT22;6921;53.642;9.956;2022-07-22T10:41:07;19.10;99.90
13699;DHT22;6921;53.642;9.956;2022-07-22T10:43:14;18.80;99.90
13699;DHT22;6921;53.642;9.956;2022-07-22T10:45:17;18.90;99.90
13699;DHT22;6921;53.642;9.956;2022-07-22T10:47:51;19.20;99.90
13699;DHT22;6921;53.642;9.956;2022-07-22T10:49:55;18.80;99.90
13699;DHT22;6921;53.642;9.956;2022-07-22T10:52:11;18.80;99.90
13699;DHT22;6921;53.642;9.956;2022-07-22T10:54:19;19.10;99.90
13699;DHT22;6921;53.642;9.956;2022-07-22T10:56:38;19.30;99.90
13699;DHT22;6921;53.642;9.956;2022-07-22T10:58:53;19.40;99.90
13699;DHT22;6921;53.642;9.956;2022-07-22T11:00:57;19.50;99.90
13699;DHT22;6921;53.642;9.956;2022-07-22T11:03:01;19.20;99.90
13699;DHT22;6921;53.642;9.956;2022-07-22T11:05:06;19.10;99.90
13699;DHT22;6921;53.642;9.956;2022-07-22T11:07:13;19.40;99.90
13699;DHT22;6921;53.642;9.956;2022-07-22T11:09:18;19.40;99.90
13699;DHT22;6921;53.642;9.956;2022-07-22T11:11:40;19.50;99.90
13699;DHT22;6921;53.642;9.956;2022-07-22T11:13:45;19.70;99.90
13699;DHT22;6921;53.642;9.956;2022-07-22T11:15:49;19.70;99.90
13699;DHT22;6921;53.642;9.956;2022-07-22T11:17:56;19.60;99.90
13699;DHT22;6921;53.642;9.956;2022-07-22T11:19:59;19.60;99.90
13699;DHT22;6921;53.642;9.956;2022-07-22T11:22:05;19.70;99.90
13699;DHT22;6921;53.642;9.956;2022-07-22T11:26:14;19.30;99.90
13699;DHT22;6921;53.642;9.956;2022-07-22T11:28:17;19.10;99.90
13699;DHT22;6921;53.642;9.956;2022-07-22T11:30:20;18.90;99.90
13699;DHT22;6921;53.642;9.956;2022-07-22T11:32:26;19.20;99.90
13699;DHT22;6921;53.642;9.956;2022-07-22T11:34:35;19.20;99.90
13699;DHT22;6921;53.642;9.956;2022-07-22T11:36:40;19.00;99.90
13699;DHT22;6921;53.642;9.956;2022-07-22T11:38:46;19.50;99.90
13699;DHT22;6921;53.642;9.956;2022-07-22T11:40:53;19.20;99.90
13699;DHT22;6921;53.642;9.956;2022-07-22T11:43:03;19.30;99.90
13699;DHT22;6921;53.642;9.956;2022-07-22T11:45:06;19.30;99.90
13699;DHT22;6921;53.642;9.956;2022-07-22T11:47:13;19.80;99.90
13699;DHT22;6921;53.642;9.956;2022-07-22T11:49:20;19.80;99.90
13699;DHT22;6921;53.642;9.956;2022-07-22T11:51:28;19.90;99.90
13699;DHT22;6921;53.642;9.956;2022-07-22T11:53:32;19.70;99.90
13699;DHT22;6921;53.642;9.956;2022-07-22T11:55:35;19.90;99.90
13699;DHT22;6921;53.642;9.956;2022-07-22T11:57:47;19.90;99.90
13699;DHT22;6921;53.642;9.956;2022-07-22T11:59:50;18.90;99.90
13699;DHT22;6921;53.642;9.956;2022-07-22T12:01:53;18.30;99.90
13699;DHT22;6921;53.642;9.956;2022-07-22T12:03:59;18.90;99.90
13699;DHT22;6921;53.642;9.956;2022-07-22T12:06:07;19.50;99.90
13699;DHT22;6921;53.642;9.956;2022-07-22T12:08:10;19.20;99.90
13699;DHT22;6921;53.642;9.956;2022-07-22T12:10:13;19.10;99.90
13699;DHT22;6921;53.642;9.956;2022-07-22T12:12:19;19.50;99.90
13699;DHT22;6921;53.642;9.956;2022-07-22T12:14:23;19.70;99.90
13699;DHT22;6921;53.642;9.956;2022-07-22T12:16:28;19.80;99.90
13699;DHT22;6921;53.642;9.956;2022-07-22T12:18:39;19.50;99.90
13699;DHT22;6921;53.642;9.956;2022-07-22T12:20:43;20.20;99.90
13699;DHT22;6921;53.642;9.956;2022-07-22T12:22:53;19.90;99.90
13699;DHT22;6921;53.642;9.956;2022-07-22T12:25:01;20.50;99.90
13699;DHT22;6921;53.642;9.956;2022-07-22T12:27:06;20.80;99.90
13699;DHT22;6921;53.642;9.956;2022-07-22T12:29:22;20.40;99.90
13699;DHT22;6921;53.642;9.956;2022-07-22T12:31:25;20.60;99.90
13699;DHT22;6921;53.642;9.956;2022-07-22T12:33:28;20.50;99.90
13699;DHT22;6921;53.642;9.956;2022-07-22T12:35:31;20.70;99.90
13699;DHT22;6921;53.642;9.956;2022-07-22T12:37:41;20.70;99.90
13699;DHT22;6921;53.642;9.956;2022-07-22T12:39:57;20.80;99.90
13699;DHT22;6921;53.642;9.956;2022-07-22T12:42:00;20.90;99.90
13699;DHT22;6921;53.642;9.956;2022-07-22T12:44:03;20.80;99.90
13699;DHT22;6921;53.642;9.956;2022-07-22T12:46:06;21.20;99.90
13699;DHT22;6921;53.642;9.956;2022-07-22T12:48:10;20.70;99.90
13699;DHT22;6921;53.642;9.956;2022-07-22T12:50:21;20.60;99.90
13699;DHT22;6921;53.642;9.956;2022-07-22T12:52:24;20.90;99.90
13699;DHT22;6921;53.642;9.956;2022-07-22T12:54:27;20.70;99.90
13699;DHT22;6921;53.642;9.956;2022-07-22T12:56:32;21.00;99.90
13699;DHT22;6921;53.642;9.956;2022-07-22T12:58:37;21.50;99.90
13699;DHT22;6921;53.642;9.956;2022-07-22T13:00:44;21.70;99.90
13699;DHT22;6921;53.642;9.956;2022-07-22T13:02:47;21.80;99.90
13699;DHT22;6921;53.642;9.956;2022-07-22T13:04:50;21.30;99.90
13699;DHT22;6921;53.642;9.956;2022-07-22T13:06:53;21.10;99.90
13699;DHT22;6921;53.642;9.956;2022-07-22T13:08:57;21.30;99.90
13699;DHT22;6921;53.642;9.956;2022-07-22T13:11:00;21.00;99.90
13699;DHT22;6921;53.642;9.956;2022-07-22T13:13:04;21.00;99.90
13699;DHT22;6921;53.642;9.956;2022-07-22T13:15:08;20.60;99.90
13699;DHT22;6921;53.642;9.956;2022-07-22T13:17:11;20.60;99.90
13699;DHT22;6921;53.642;9.956;2022-07-22T13:21:18;20.70;99.90
13699;DHT22;6921;53.642;9.956;2022-07-22T13:23:21;20.70;99.90
13699;DHT22;6921;53.642;9.956;2022-07-22T13:25:24;20.30;99.90
13699;DHT22;6921;53.642;9.956;2022-07-22T13:27:28;20.40;99.90
13699;DHT22;6921;53.642;9.956;2022-07-22T13:29:33;20.60;99.90
13699;DHT22;6921;53.642;9.956;2022-07-22T13:31:36;20.60;99.90
13699;DHT22;6921;53.642;9.956;2022-07-22T13:33:56;20.80;99.90